sensor_id;sensor_type;location;lat;lon;timestamp;P1;durP1;ratioP1;P2;durP2;ratioP2
37303;SDS011;23188;51.188;16.374;2022-12-18T00:03:56;35.38;;;16.77;;
37303;SDS011;23188;51.188;16.374;2022-12-18T00:07:58;37.17;;;18.90;;
37303;SDS011;23188;51.188;16.374;2022-12-18T00:11:59;40.67;;;21.48;;
37303;SDS011;23188;51.188;16.374;2022-12-18T00:16:01;50.90;;;20.65;;
37303;SDS011;23188;51.188;16.374;2022-12-18T00:20:05;34.43;;;18.30;;
37303;SDS011;23188;51.188;16.374;2022-12-18T00:24:08;39.08;;;22.10;;
37303;SDS011;23188;51.188;16.374;2022-12-18T00:28:10;46.02;;;22.25;;
37303;SDS011;23188;51.188;16.374;2022-12-18T00:32:11;39.27;;;20.43;;
37303;SDS011;23188;51.188;16.374;2022-12-18T00:36:14;38.67;;;20.85;;
37303;SDS011;23188;51.188;16.374;2022-12-18T00:40:18;37.65;;;20.70;;
37303;SDS011;23188;51.188;16.374;2022-12-18T00:44:19;38.05;;;22.17;;
37303;SDS011;23188;51.188;16.374;2022-12-18T00:48:21;39.08;;;18.67;;
37303;SDS011;23188;51.188;16.374;2022-12-18T00:52:22;29.70;;;18.52;;
37303;SDS011;23188;51.188;16.374;2022-12-18T00:56:23;33.42;;;17.62;;
37303;SDS011;23188;51.188;16.374;2022-12-18T01:00:25;32.20;;;17.48;;
37303;SDS011;23188;51.188;16.374;2022-12-18T01:04:26;34.25;;;19.67;;
37303;SDS011;23188;51.188;16.374;2022-12-18T01:08:28;32.60;;;19.30;;
37303;SDS011;23188;51.188;16.374;2022-12-18T01:12:30;33.60;;;18.62;;
37303;SDS011;23188;51.188;16.374;2022-12-18T01:16:31;32.28;;;17.55;;
37303;SDS011;23188;51.188;16.374;2022-12-18T01:20:32;32.35;;;19.20;;
37303;SDS011;23188;51.188;16.374;2022-12-18T01:24:34;38.30;;;18.12;;
37303;SDS011;23188;51.188;16.374;2022-12-18T01:28:36;35.08;;;19.00;;
37303;SDS011;23188;51.188;16.374;2022-12-18T01:32:38;38.35;;;19.57;;
37303;SDS011;23188;51.188;16.374;2022-12-18T01:36:40;28.23;;;15.72;;
37303;SDS011;23188;51.188;16.374;2022-12-18T01:40:41;36.42;;;18.70;;
37303;SDS011;23188;51.188;16.374;2022-12-18T01:44:56;27.62;;;16.75;;
37303;SDS011;23188;51.188;16.374;2022-12-18T01:49:04;34.58;;;18.55;;
37303;SDS011;23188;51.188;16.374;2022-12-18T01:57:17;44.42;;;20.10;;
37303;SDS011;23188;51.188;16.374;2022-12-18T02:01:23;38.08;;;19.75;;
37303;SDS011;23188;51.188;16.374;2022-12-18T02:05:29;45.90;;;22.87;;
37303;SDS011;23188;51.188;16.374;2022-12-18T02:09:50;29.90;;;19.02;;
37303;SDS011;23188;51.188;16.374;2022-12-18T02:18:12;33.27;;;18.27;;
37303;SDS011;23188;51.188;16.374;2022-12-18T02:27:12;34.08;;;16.65;;
37303;SDS011;23188;51.188;16.374;2022-12-18T02:31:16;31.00;;;17.25;;
37303;SDS011;23188;51.188;16.374;2022-12-18T02:35:24;41.88;;;22.58;;
37303;SDS011;23188;51.188;16.374;2022-12-18T02:39:29;32.83;;;18.32;;
37303;SDS011;23188;51.188;16.374;2022-12-18T02:43:33;33.00;;;16.50;;
37303;SDS011;23188;51.188;16.374;2022-12-18T02:47:36;35.35;;;20.08;;
37303;SDS011;23188;51.188;16.374;2022-12-18T02:56:10;36.38;;;19.20;;
37303;SDS011;23188;51.188;16.374;2022-12-18T03:00:20;27.55;;;18.15;;
37303;SDS011;23188;51.188;16.374;2022-12-18T03:09:32;29.18;;;16.00;;
37303;SDS011;23188;51.188;16.374;2022-12-18T03:13:52;29.00;;;16.93;;
37303;SDS011;23188;51.188;16.374;2022-12-18T03:17:55;28.47;;;15.45;;
37303;SDS011;23188;51.188;16.374;2022-12-18T03:22:03;38.60;;;18.27;;
37303;SDS011;23188;51.188;16.374;2022-12-18T03:26:07;27.58;;;18.25;;
37303;SDS011;23188;51.188;16.374;2022-12-18T03:30:13;31.57;;;17.52;;
37303;SDS011;23188;51.188;16.374;2022-12-18T03:34:17;34.20;;;18.00;;
37303;SDS011;23188;51.188;16.374;2022-12-18T03:38:22;38.28;;;18.90;;
37303;SDS011;23188;51.188;16.374;2022-12-18T03:42:26;26.73;;;17.37;;
37303;SDS011;23188;51.188;16.374;2022-12-18T03:54:56;34.67;;;20.08;;
37303;SDS011;23188;51.188;16.374;2022-12-18T03:58:59;28.15;;;19.10;;
37303;SDS011;23188;51.188;16.374;2022-12-18T04:03:03;32.95;;;18.37;;
37303;SDS011;23188;51.188;16.374;2022-12-18T04:07:06;32.45;;;19.25;;
37303;SDS011;23188;51.188;16.374;2022-12-18T04:11:08;37.65;;;21.40;;
37303;SDS011;23188;51.188;16.374;2022-12-18T04:15:10;35.20;;;20.43;;
37303;SDS011;23188;51.188;16.374;2022-12-18T04:19:12;32.90;;;18.32;;
37303;SDS011;23188;51.188;16.374;2022-12-18T04:23:14;35.73;;;21.73;;
37303;SDS011;23188;51.188;16.374;2022-12-18T04:27:15;30.77;;;19.55;;
37303;SDS011;23188;51.188;16.374;2022-12-18T04:31:16;36.98;;;21.93;;
37303;SDS011;23188;51.188;16.374;2022-12-18T04:35:18;34.27;;;23.20;;
37303;SDS011;23188;51.188;16.374;2022-12-18T04:39:19;48.38;;;20.80;;
37303;SDS011;23188;51.188;16.374;2022-12-18T04:43:20;44.38;;;20.97;;
37303;SDS011;23188;51.188;16.374;2022-12-18T04:47:22;32.33;;;20.85;;
37303;SDS011;23188;51.188;16.374;2022-12-18T04:51:23;33.08;;;18.52;;
37303;SDS011;23188;51.188;16.374;2022-12-18T04:55:24;49.45;;;23.73;;
37303;SDS011;23188;51.188;16.374;2022-12-18T04:59:26;29.95;;;19.30;;
37303;SDS011;23188;51.188;16.374;2022-12-18T05:03:27;35.08;;;20.50;;
37303;SDS011;23188;51.188;16.374;2022-12-18T05:07:29;36.33;;;19.27;;
37303;SDS011;23188;51.188;16.374;2022-12-18T05:11:30;37.00;;;20.95;;
37303;SDS011;23188;51.188;16.374;2022-12-18T05:15:32;30.32;;;20.27;;
37303;SDS011;23188;51.188;16.374;2022-12-18T05:19:34;31.30;;;18.48;;
37303;SDS011;23188;51.188;16.374;2022-12-18T05:23:37;39.18;;;24.55;;
37303;SDS011;23188;51.188;16.374;2022-12-18T05:27:38;39.20;;;20.85;;
37303;SDS011;23188;51.188;16.374;2022-12-18T05:31:40;32.15;;;18.20;;
37303;SDS011;23188;51.188;16.374;2022-12-18T05:35:41;30.37;;;20.45;;
37303;SDS011;23188;51.188;16.374;2022-12-18T05:39:42;40.45;;;20.25;;
37303;SDS011;23188;51.188;16.374;2022-12-18T05:43:44;33.80;;;18.52;;
37303;SDS011;23188;51.188;16.374;2022-12-18T05:47:45;38.92;;;21.80;;
37303;SDS011;23188;51.188;16.374;2022-12-18T05:51:47;46.60;;;22.90;;
37303;SDS011;23188;51.188;16.374;2022-12-18T05:55:48;35.08;;;18.60;;
37303;SDS011;23188;51.188;16.374;2022-12-18T05:59:49;40.55;;;21.60;;
37303;SDS011;23188;51.188;16.374;2022-12-18T06:03:51;39.48;;;23.18;;
37303;SDS011;23188;51.188;16.374;2022-12-18T06:07:52;45.50;;;21.90;;
37303;SDS011;23188;51.188;16.374;2022-12-18T06:11:54;37.30;;;20.55;;
37303;SDS011;23188;51.188;16.374;2022-12-18T06:15:55;35.55;;;20.37;;
37303;SDS011;23188;51.188;16.374;2022-12-18T06:19:56;37.50;;;18.40;;
37303;SDS011;23188;51.188;16.374;2022-12-18T06:23:59;57.95;;;33.02;;
37303;SDS011;23188;51.188;16.374;2022-12-18T06:28:01;43.10;;;24.98;;
37303;SDS011;23188;51.188;16.374;2022-12-18T06:32:02;45.25;;;25.85;;
37303;SDS011;23188;51.188;16.374;2022-12-18T06:36:05;44.50;;;22.40;;
37303;SDS011;23188;51.188;16.374;2022-12-18T06:40:09;33.15;;;20.48;;
37303;SDS011;23188;51.188;16.374;2022-12-18T06:44:11;165.25;;;77.20;;
37303;SDS011;23188;51.188;16.374;2022-12-18T06:48:12;180.50;;;79.55;;
37303;SDS011;23188;51.188;16.374;2022-12-18T06:52:13;60.80;;;29.92;;
37303;SDS011;23188;51.188;16.374;2022-12-18T06:56:18;36.60;;;22.42;;
37303;SDS011;23188;51.188;16.374;2022-12-18T07:00:19;51.90;;;26.77;;
37303;SDS011;23188;51.188;16.374;2022-12-18T07:04:21;36.38;;;23.05;;
37303;SDS011;23188;51.188;16.374;2022-12-18T07:08:22;50.55;;;30.85;;
37303;SDS011;23188;51.188;16.374;2022-12-18T07:12:23;39.88;;;23.55;;
37303;SDS011;23188;51.188;16.374;2022-12-18T07:16:24;44.93;;;27.27;;
37303;SDS011;23188;51.188;16.374;2022-12-18T07:20:26;42.30;;;25.52;;
37303;SDS011;23188;51.188;16.374;2022-12-18T07:24:27;45.60;;;23.70;;
37303;SDS011;23188;51.188;16.374;2022-12-18T07:28:29;54.20;;;30.40;;
37303;SDS011;23188;51.188;16.374;2022-12-18T07:32:30;54.15;;;30.27;;
37303;SDS011;23188;51.188;16.374;2022-12-18T07:36:32;54.60;;;28.38;;
37303;SDS011;23188;51.188;16.374;2022-12-18T07:40:33;47.27;;;30.17;;
37303;SDS011;23188;51.188;16.374;2022-12-18T07:44:34;44.98;;;27.15;;
37303;SDS011;23188;51.188;16.374;2022-12-18T07:48:36;115.32;;;57.17;;
37303;SDS011;23188;51.188;16.374;2022-12-18T07:52:37;143.85;;;71.57;;
37303;SDS011;23188;51.188;16.374;2022-12-18T07:56:38;144.47;;;70.47;;
37303;SDS011;23188;51.188;16.374;2022-12-18T08:00:40;89.35;;;42.80;;
37303;SDS011;23188;51.188;16.374;2022-12-18T08:04:41;135.40;;;66.65;;
37303;SDS011;23188;51.188;16.374;2022-12-18T08:08:42;102.02;;;56.25;;
37303;SDS011;23188;51.188;16.374;2022-12-18T08:12:44;65.37;;;36.20;;
37303;SDS011;23188;51.188;16.374;2022-12-18T08:16:45;54.03;;;32.17;;
37303;SDS011;23188;51.188;16.374;2022-12-18T08:20:47;62.38;;;32.25;;
37303;SDS011;23188;51.188;16.374;2022-12-18T08:24:48;58.98;;;31.27;;
37303;SDS011;23188;51.188;16.374;2022-12-18T08:28:50;89.75;;;45.48;;
37303;SDS011;23188;51.188;16.374;2022-12-18T08:32:52;107.55;;;51.28;;
37303;SDS011;23188;51.188;16.374;2022-12-18T08:36:54;79.50;;;43.87;;
37303;SDS011;23188;51.188;16.374;2022-12-18T08:40:59;84.97;;;45.35;;
37303;SDS011;23188;51.188;16.374;2022-12-18T08:45:05;61.73;;;32.85;;
37303;SDS011;23188;51.188;16.374;2022-12-18T08:49:08;70.52;;;44.75;;
37303;SDS011;23188;51.188;16.374;2022-12-18T08:53:11;68.83;;;39.90;;
37303;SDS011;23188;51.188;16.374;2022-12-18T08:57:12;57.20;;;30.75;;
37303;SDS011;23188;51.188;16.374;2022-12-18T09:01:14;53.58;;;30.60;;
37303;SDS011;23188;51.188;16.374;2022-12-18T09:05:15;57.80;;;29.95;;
37303;SDS011;23188;51.188;16.374;2022-12-18T09:09:16;55.45;;;32.08;;
37303;SDS011;23188;51.188;16.374;2022-12-18T09:13:18;62.08;;;33.53;;
37303;SDS011;23188;51.188;16.374;2022-12-18T09:17:19;50.88;;;28.47;;
37303;SDS011;23188;51.188;16.374;2022-12-18T09:21:20;39.98;;;22.02;;
37303;SDS011;23188;51.188;16.374;2022-12-18T09:25:22;47.33;;;27.05;;
37303;SDS011;23188;51.188;16.374;2022-12-18T09:29:23;65.15;;;26.68;;
37303;SDS011;23188;51.188;16.374;2022-12-18T09:33:24;56.13;;;29.80;;
37303;SDS011;23188;51.188;16.374;2022-12-18T09:37:26;39.58;;;22.73;;
37303;SDS011;23188;51.188;16.374;2022-12-18T09:42:14;67.27;;;36.48;;
37303;SDS011;23188;51.188;16.374;2022-12-18T09:46:04;53.73;;;28.12;;
37303;SDS011;23188;51.188;16.374;2022-12-18T09:50:13;35.28;;;19.65;;
37303;SDS011;23188;51.188;16.374;2022-12-18T09:54:23;50.58;;;26.52;;
37303;SDS011;23188;51.188;16.374;2022-12-18T09:58:36;47.85;;;28.55;;
37303;SDS011;23188;51.188;16.374;2022-12-18T10:02:40;44.83;;;27.07;;
37303;SDS011;23188;51.188;16.374;2022-12-18T10:10:57;51.68;;;30.88;;
37303;SDS011;23188;51.188;16.374;2022-12-18T10:19:37;69.87;;;35.43;;
37303;SDS011;23188;51.188;16.374;2022-12-18T10:28:15;69.32;;;40.88;;
37303;SDS011;23188;51.188;16.374;2022-12-18T10:32:20;97.62;;;52.05;;
37303;SDS011;23188;51.188;16.374;2022-12-18T10:36:30;56.30;;;35.00;;
37303;SDS011;23188;51.188;16.374;2022-12-18T10:40:31;60.85;;;33.70;;
37303;SDS011;23188;51.188;16.374;2022-12-18T10:44:33;55.08;;;32.90;;
37303;SDS011;23188;51.188;16.374;2022-12-18T10:52:55;52.43;;;29.70;;
37303;SDS011;23188;51.188;16.374;2022-12-18T10:57:28;61.13;;;32.03;;
37303;SDS011;23188;51.188;16.374;2022-12-18T11:01:53;67.27;;;33.58;;
37303;SDS011;23188;51.188;16.374;2022-12-18T11:06:10;69.27;;;40.78;;
37303;SDS011;23188;51.188;16.374;2022-12-18T11:10:16;58.70;;;37.03;;
37303;SDS011;23188;51.188;16.374;2022-12-18T11:14:24;49.95;;;33.10;;
37303;SDS011;23188;51.188;16.374;2022-12-18T11:18:34;64.37;;;33.42;;
37303;SDS011;23188;51.188;16.374;2022-12-18T11:22:36;64.97;;;32.20;;
37303;SDS011;23188;51.188;16.374;2022-12-18T11:26:39;65.42;;;36.23;;
37303;SDS011;23188;51.188;16.374;2022-12-18T11:30:42;63.00;;;39.38;;
37303;SDS011;23188;51.188;16.374;2022-12-18T11:34:48;59.95;;;35.92;;
37303;SDS011;23188;51.188;16.374;2022-12-18T11:38:49;55.48;;;29.77;;
37303;SDS011;23188;51.188;16.374;2022-12-18T11:47:39;57.83;;;31.33;;
37303;SDS011;23188;51.188;16.374;2022-12-18T11:52:02;51.73;;;29.77;;
37303;SDS011;23188;51.188;16.374;2022-12-18T12:00:47;53.23;;;32.60;;
37303;SDS011;23188;51.188;16.374;2022-12-18T12:27:17;65.05;;;34.58;;
37303;SDS011;23188;51.188;16.374;2022-12-18T12:35:50;66.10;;;34.88;;
37303;SDS011;23188;51.188;16.374;2022-12-18T12:40:12;65.40;;;35.40;;
37303;SDS011;23188;51.188;16.374;2022-12-18T12:44:24;57.53;;;31.95;;
37303;SDS011;23188;51.188;16.374;2022-12-18T12:48:35;76.22;;;37.55;;
37303;SDS011;23188;51.188;16.374;2022-12-18T12:52:53;66.97;;;36.05;;
37303;SDS011;23188;51.188;16.374;2022-12-18T12:56:58;66.90;;;38.38;;
37303;SDS011;23188;51.188;16.374;2022-12-18T13:01:22;81.90;;;47.57;;
37303;SDS011;23188;51.188;16.374;2022-12-18T13:05:27;61.45;;;35.58;;
37303;SDS011;23188;51.188;16.374;2022-12-18T13:10:39;60.92;;;33.50;;
37303;SDS011;23188;51.188;16.374;2022-12-18T13:14:31;57.85;;;30.32;;
37303;SDS011;23188;51.188;16.374;2022-12-18T13:18:37;59.23;;;31.33;;
37303;SDS011;23188;51.188;16.374;2022-12-18T13:22:40;58.23;;;32.05;;
37303;SDS011;23188;51.188;16.374;2022-12-18T13:26:44;69.35;;;39.15;;
37303;SDS011;23188;51.188;16.374;2022-12-18T13:30:47;65.17;;;33.42;;
37303;SDS011;23188;51.188;16.374;2022-12-18T13:39:26;63.23;;;34.08;;
37303;SDS011;23188;51.188;16.374;2022-12-18T13:43:41;62.25;;;33.95;;
37303;SDS011;23188;51.188;16.374;2022-12-18T13:47:45;60.83;;;29.12;;
37303;SDS011;23188;51.188;16.374;2022-12-18T13:51:49;43.08;;;25.02;;
37303;SDS011;23188;51.188;16.374;2022-12-18T13:55:53;50.80;;;26.00;;
37303;SDS011;23188;51.188;16.374;2022-12-18T13:59:56;43.85;;;28.38;;
37303;SDS011;23188;51.188;16.374;2022-12-18T14:08:33;49.25;;;27.02;;
37303;SDS011;23188;51.188;16.374;2022-12-18T14:12:39;61.95;;;30.95;;
37303;SDS011;23188;51.188;16.374;2022-12-18T14:16:58;69.12;;;35.05;;
37303;SDS011;23188;51.188;16.374;2022-12-18T14:21:00;56.88;;;31.48;;
37303;SDS011;23188;51.188;16.374;2022-12-18T14:29:24;53.05;;;30.90;;
37303;SDS011;23188;51.188;16.374;2022-12-18T14:33:30;62.15;;;36.15;;
37303;SDS011;23188;51.188;16.374;2022-12-18T14:37:31;63.00;;;34.00;;
37303;SDS011;23188;51.188;16.374;2022-12-18T14:41:32;62.98;;;33.63;;
37303;SDS011;23188;51.188;16.374;2022-12-18T14:45:37;74.03;;;36.13;;
37303;SDS011;23188;51.188;16.374;2022-12-18T14:49:43;48.28;;;24.00;;
37303;SDS011;23188;51.188;16.374;2022-12-18T14:53:46;60.78;;;35.00;;
